createdAt,value
2023-01-23T00:01:31.518Z,22.60
2023-01-23T00:03:58.517Z,26.50
2023-01-23T00:06:25.764Z,24.52
2023-01-23T00:08:52.497Z,27.20
2023-01-23T00:11:22.666Z,26.98
2023-01-23T00:13:49.685Z,26.52
2023-01-23T00:16:26.907Z,24.30
2023-01-23T00:18:55.907Z,23.05
2023-01-23T00:21:26.269Z,23.48
2023-01-23T00:23:55.304Z,21.45
2023-01-23T00:26:24.881Z,22.45
2023-01-23T00:28:52.082Z,22.83
2023-01-23T00:31:28.112Z,23.05
2023-01-23T00:34:01.610Z,21.42
2023-01-23T00:36:31.167Z,21.90
2023-01-23T00:38:57.914Z,23.92
2023-01-23T00:41:24.848Z,22.48
2023-01-23T00:43:53.297Z,26.65
2023-01-23T00:46:20.918Z,20.35
2023-01-23T00:48:47.944Z,20.30
2023-01-23T00:51:14.852Z,21.67
2023-01-23T00:53:41.894Z,19.30
2023-01-23T00:56:08.890Z,20.95
2023-01-23T00:58:35.428Z,21.13
2023-01-23T01:01:02.077Z,19.38
2023-01-23T01:03:28.639Z,18.05
2023-01-23T01:05:55.208Z,19.50
2023-01-23T01:08:21.760Z,19.58
2023-01-23T01:10:48.164Z,19.38
2023-01-23T01:13:16.821Z,19.33
2023-01-23T01:15:43.399Z,18.52
2023-01-23T01:18:10.065Z,21.40
2023-01-23T01:20:36.589Z,19.33
2023-01-23T01:23:03.287Z,19.15
2023-01-23T01:25:30.491Z,17.40
2023-01-23T01:27:57.059Z,17.80
2023-01-23T01:30:25.713Z,17.35
2023-01-23T01:32:54.178Z,15.98
2023-01-23T01:35:21.366Z,19.25
2023-01-23T01:37:47.923Z,20.48
2023-01-23T01:40:19.338Z,19.48
2023-01-23T01:42:54.182Z,18.95
2023-01-23T01:46:09.045Z,18.52
2023-01-23T01:48:44.072Z,18.02
2023-01-23T01:51:37.517Z,17.75
2023-01-23T01:54:21.140Z,17.88
2023-01-23T01:56:54.994Z,21.05
2023-01-23T01:59:24.401Z,18.83
2023-01-23T02:01:56.795Z,16.92
2023-01-23T02:04:23.637Z,21.75
2023-01-23T02:06:52.520Z,18.83
2023-01-23T02:09:25.113Z,19.50
2023-01-23T02:11:51.788Z,21.08
2023-01-23T02:14:20.170Z,21.65
2023-01-23T02:16:51.039Z,19.20
2023-01-23T02:19:34.760Z,20.42
2023-01-23T02:22:16.649Z,22.08
2023-01-23T02:24:58.517Z,22.50
2023-01-23T02:27:25.122Z,19.90
2023-01-23T02:29:53.790Z,20.45
2023-01-23T02:32:21.869Z,19.55
2023-01-23T02:34:48.449Z,20.40
2023-01-23T02:37:15.327Z,21.55
2023-01-23T02:39:43.616Z,22.08
2023-01-23T02:42:12.544Z,18.63
2023-01-23T02:44:47.063Z,20.90
2023-01-23T02:47:15.655Z,19.45
2023-01-23T02:49:42.823Z,21.33
2023-01-23T02:52:09.867Z,18.50
2023-01-23T02:54:36.966Z,17.35
2023-01-23T02:57:03.494Z,21.67
2023-01-23T02:59:49.381Z,20.05
2023-01-23T03:02:16.069Z,20.00
2023-01-23T03:04:42.617Z,19.00
2023-01-23T03:07:09.108Z,17.67
2023-01-23T03:09:35.591Z,18.48
2023-01-23T03:12:02.751Z,16.73
2023-01-23T03:14:30.071Z,17.25
2023-01-23T03:16:56.544Z,16.13
2023-01-23T03:19:29.364Z,16.55
2023-01-23T03:21:55.883Z,19.73
2023-01-23T03:24:22.699Z,20.65
2023-01-23T03:26:51.080Z,16.70
2023-01-23T03:29:41.517Z,18.58
2023-01-23T03:32:10.982Z,17.38
2023-01-23T03:34:38.130Z,17.15
2023-01-23T03:37:07.813Z,18.55
2023-01-23T03:39:54.082Z,20.42
2023-01-23T03:42:21.651Z,18.13
2023-01-23T03:44:51.888Z,19.98
2023-01-23T03:47:21.732Z,25.35
2023-01-23T03:49:48.581Z,19.00
2023-01-23T03:52:15.060Z,22.77
2023-01-23T03:54:42.607Z,22.50
2023-01-23T03:57:10.257Z,22.42
2023-01-23T04:00:01.932Z,17.25
2023-01-23T04:02:40.253Z,21.75
2023-01-23T04:05:09.819Z,20.00
2023-01-23T04:07:36.241Z,22.33
2023-01-23T04:10:02.909Z,22.40
2023-01-23T04:12:29.442Z,22.48
2023-01-23T04:14:56.067Z,22.83
2023-01-23T04:17:22.580Z,29.00
2023-01-23T04:19:49.100Z,24.17
2023-01-23T04:22:15.583Z,21.58
2023-01-23T04:24:46.495Z,25.08
2023-01-23T04:27:13.245Z,23.60
2023-01-23T04:29:40.777Z,25.55
2023-01-23T04:32:09.903Z,26.40
2023-01-23T04:34:41.199Z,22.95
2023-01-23T04:37:09.203Z,22.65
2023-01-23T04:39:35.692Z,23.65
2023-01-23T04:42:02.151Z,23.30
2023-01-23T04:44:45.070Z,23.63
2023-01-23T04:47:30.123Z,20.10
2023-01-23T04:49:57.779Z,27.90
2023-01-23T04:52:24.341Z,20.25
2023-01-23T04:54:56.871Z,21.08
2023-01-23T04:57:23.772Z,22.65
2023-01-23T04:59:57.095Z,22.77
2023-01-23T05:02:25.062Z,24.48
2023-01-23T05:04:52.142Z,21.13
2023-01-23T05:07:18.693Z,25.00
2023-01-23T05:09:57.949Z,22.60
2023-01-23T05:12:24.465Z,25.08
2023-01-23T05:14:50.982Z,30.02
2023-01-23T05:17:17.459Z,27.13
2023-01-23T05:19:51.394Z,20.02
2023-01-23T05:22:18.031Z,19.13
2023-01-23T05:24:44.982Z,21.73
2023-01-23T05:27:12.318Z,19.48
2023-01-23T05:29:41.629Z,24.35
2023-01-23T05:32:16.155Z,21.55
2023-01-23T05:34:42.706Z,18.50
2023-01-23T05:37:17.854Z,22.65
2023-01-23T05:39:49.017Z,19.25
2023-01-23T05:42:15.612Z,25.83
2023-01-23T05:44:58.541Z,25.63
2023-01-23T05:47:29.963Z,19.63
2023-01-23T05:49:57.487Z,20.48
2023-01-23T05:52:28.951Z,22.70
2023-01-23T05:54:55.802Z,22.77
2023-01-23T05:57:22.750Z,19.55
2023-01-23T06:00:11.415Z,21.27
2023-01-23T06:02:56.580Z,24.70
2023-01-23T06:05:42.159Z,24.45
2023-01-23T06:08:15.950Z,23.75
2023-01-23T06:10:42.796Z,24.40
2023-01-23T06:13:09.376Z,29.45
2023-01-23T06:15:36.876Z,29.17
2023-01-23T06:18:08.587Z,26.25
2023-01-23T06:20:35.077Z,26.45
2023-01-23T06:23:02.413Z,22.20
2023-01-23T06:25:28.950Z,23.10
2023-01-23T06:27:57.953Z,23.05
2023-01-23T06:30:27.336Z,24.95
2023-01-23T06:32:55.032Z,25.25
2023-01-23T06:35:27.803Z,23.27
2023-01-23T06:37:55.020Z,24.63
2023-01-23T06:40:22.717Z,25.00
2023-01-23T06:43:06.458Z,30.83
2023-01-23T06:45:33.180Z,29.95
2023-01-23T06:47:59.671Z,26.58
2023-01-23T06:50:27.468Z,22.27
2023-01-23T06:52:53.986Z,28.38
2023-01-23T06:55:21.642Z,24.15
2023-01-23T06:57:48.772Z,24.98
2023-01-23T07:00:15.696Z,25.48
2023-01-23T07:02:45.448Z,28.30
2023-01-23T07:05:12.080Z,35.08
2023-01-23T07:07:44.110Z,30.67
2023-01-23T07:10:11.333Z,29.85
2023-01-23T07:12:37.980Z,26.60
2023-01-23T07:15:04.948Z,23.77
2023-01-23T07:17:38.087Z,21.75
2023-01-23T07:20:05.101Z,28.83
2023-01-23T07:22:35.676Z,26.95
2023-01-23T07:25:02.256Z,21.50
2023-01-23T07:27:28.777Z,25.50
2023-01-23T07:29:55.189Z,27.00
2023-01-23T07:32:21.634Z,24.45
2023-01-23T07:34:48.100Z,25.67
2023-01-23T07:37:14.505Z,23.80
2023-01-23T07:39:40.909Z,22.55
2023-01-23T07:42:07.383Z,26.45
2023-01-23T07:44:33.798Z,27.63
2023-01-23T07:47:00.203Z,28.65
2023-01-23T07:49:26.648Z,23.00
2023-01-23T07:51:53.115Z,22.70
2023-01-23T07:54:19.558Z,21.17
2023-01-23T07:56:49.827Z,21.27
2023-01-23T07:59:16.576Z,18.55
2023-01-23T08:01:43.735Z,20.80
2023-01-23T08:04:10.260Z,20.05
2023-01-23T08:06:36.900Z,21.58
2023-01-23T08:09:03.476Z,18.30
2023-01-23T08:11:29.929Z,22.73
2023-01-23T08:13:56.365Z,21.08
2023-01-23T08:16:22.807Z,19.42
2023-01-23T08:18:49.815Z,22.63
2023-01-23T08:21:16.402Z,20.23
2023-01-23T08:23:42.868Z,25.90
2023-01-23T08:26:11.464Z,24.58
2023-01-23T08:28:37.905Z,26.08
2023-01-23T08:31:07.725Z,22.65
2023-01-23T08:33:35.813Z,20.90
2023-01-23T08:36:02.499Z,25.55
2023-01-23T08:38:28.941Z,23.55
2023-01-23T08:40:59.531Z,23.75
2023-01-23T08:43:26.187Z,26.23
2023-01-23T08:45:55.083Z,24.20
2023-01-23T08:48:23.391Z,25.00
2023-01-23T08:50:50.276Z,24.45
2023-01-23T08:53:16.974Z,22.08
2023-01-23T08:55:43.642Z,20.98
2023-01-23T08:58:12.949Z,25.00
2023-01-23T09:00:40.060Z,21.67
2023-01-23T09:03:06.534Z,20.10
2023-01-23T09:05:33.398Z,21.13
2023-01-23T09:08:00.020Z,17.75
2023-01-23T09:10:26.892Z,21.70
2023-01-23T09:12:54.655Z,22.33
2023-01-23T09:15:22.434Z,22.08
2023-01-23T09:17:49.574Z,21.00
2023-01-23T09:20:16.930Z,21.65
2023-01-23T09:22:44.506Z,23.30
2023-01-23T09:25:12.136Z,24.20
2023-01-23T09:27:38.580Z,24.40
2023-01-23T09:30:05.461Z,23.15
2023-01-23T09:32:32.276Z,24.55
2023-01-23T09:34:58.853Z,21.67
2023-01-23T09:37:25.288Z,25.55
2023-01-23T09:39:51.670Z,22.92
2023-01-23T09:42:23.742Z,25.88
2023-01-23T09:44:55.425Z,26.45
2023-01-23T09:47:31.474Z,22.60
2023-01-23T09:50:07.143Z,30.40
2023-01-23T09:52:46.073Z,26.48
2023-01-23T09:55:18.557Z,24.85
2023-01-23T09:57:52.846Z,32.40
2023-01-23T10:00:30.000Z,30.02
2023-01-23T10:02:57.240Z,31.42
2023-01-23T10:05:36.209Z,45.30
2023-01-23T10:08:33.248Z,33.05
2023-01-23T10:11:03.921Z,26.95
2023-01-23T10:14:03.153Z,36.10
2023-01-23T10:16:51.250Z,26.90
2023-01-23T10:19:26.472Z,29.65
2023-01-23T10:22:23.164Z,25.38
2023-01-23T10:24:55.836Z,26.77
2023-01-23T10:27:30.972Z,22.30
2023-01-23T10:30:28.152Z,28.27
2023-01-23T10:33:12.887Z,23.98
2023-01-23T10:35:47.466Z,25.70
2023-01-23T10:38:26.184Z,28.38
2023-01-23T10:41:11.298Z,26.60
2023-01-23T10:43:38.128Z,22.63
2023-01-23T10:46:19.402Z,22.38
2023-01-23T10:48:47.192Z,23.58
2023-01-23T10:51:47.068Z,23.02
2023-01-23T10:54:31.370Z,25.63
2023-01-23T10:57:23.627Z,23.45
2023-01-23T10:59:57.179Z,24.85
2023-01-23T11:02:28.509Z,26.88
2023-01-23T11:07:27.183Z,28.70
2023-01-23T11:09:59.669Z,32.60
2023-01-23T11:12:29.075Z,29.33
2023-01-23T11:15:20.120Z,30.27
2023-01-23T11:17:47.032Z,24.55
2023-01-23T11:20:24.558Z,30.52
2023-01-23T11:23:20.666Z,27.77
2023-01-23T11:25:48.362Z,32.10
2023-01-23T11:28:27.389Z,25.80
2023-01-23T11:31:12.472Z,27.98
2023-01-23T11:33:59.187Z,27.13
2023-01-23T11:36:43.859Z,27.40
2023-01-23T11:39:39.482Z,32.72
2023-01-23T11:42:10.679Z,27.45
2023-01-23T11:44:46.004Z,28.45
2023-01-23T11:47:41.392Z,25.38
2023-01-23T11:50:20.144Z,22.50
2023-01-23T11:52:57.287Z,31.73
2023-01-23T11:55:51.756Z,30.17
2023-01-23T11:58:30.850Z,26.00
2023-01-23T12:01:34.144Z,27.17
2023-01-23T12:04:09.967Z,26.38
2023-01-23T12:06:43.155Z,25.95
2023-01-23T12:09:09.515Z,29.88
2023-01-23T12:12:13.652Z,25.08
2023-01-23T12:15:18.476Z,23.60
2023-01-23T12:20:52.646Z,26.13
2023-01-23T12:23:37.827Z,22.70
2023-01-23T12:26:10.808Z,21.38
2023-01-23T12:28:50.919Z,21.42
2023-01-23T12:31:45.211Z,21.70
2023-01-23T12:34:27.533Z,24.27
2023-01-23T12:37:14.197Z,21.77
2023-01-23T12:39:50.313Z,24.45
2023-01-23T12:42:25.129Z,26.02
2023-01-23T12:45:03.705Z,26.27
2023-01-23T12:47:43.726Z,22.13
2023-01-23T12:50:19.502Z,22.92
2023-01-23T12:52:59.531Z,22.33
2023-01-23T12:55:34.678Z,22.48
2023-01-23T12:58:09.022Z,19.50
2023-01-23T13:00:49.662Z,23.08
2023-01-23T13:03:22.959Z,25.10
2023-01-23T13:05:58.591Z,23.77
2023-01-23T13:08:40.428Z,24.88
2023-01-23T13:11:40.633Z,20.50
2023-01-23T13:14:43.404Z,21.90
2023-01-23T13:17:43.760Z,30.52
2023-01-23T13:20:39.520Z,21.67
2023-01-23T13:23:20.438Z,23.05
2023-01-23T13:25:47.318Z,22.77
2023-01-23T13:28:45.325Z,21.85
2023-01-23T13:31:47.561Z,20.20
2023-01-23T13:36:46.096Z,23.35
2023-01-23T13:39:19.639Z,21.75
2023-01-23T13:41:48.721Z,20.73
2023-01-23T13:44:18.367Z,24.40
2023-01-23T14:24:23.154Z,20.40
2023-01-23T14:26:52.266Z,22.08
2023-01-23T14:29:24.941Z,19.55
2023-01-23T14:31:51.891Z,19.42
2023-01-23T14:34:21.523Z,19.67
2023-01-23T14:37:03.165Z,18.98
2023-01-23T14:39:33.832Z,22.33
2023-01-23T14:42:03.309Z,25.85
2023-01-23T14:44:41.966Z,20.83
2023-01-23T14:47:25.765Z,21.27
2023-01-23T14:49:53.699Z,19.65
2023-01-23T14:52:26.596Z,24.00
2023-01-23T14:54:54.360Z,23.95
2023-01-23T14:57:23.679Z,23.02
2023-01-23T14:59:54.636Z,21.50
2023-01-23T15:02:36.367Z,23.98
2023-01-23T15:05:18.745Z,22.83
2023-01-23T15:07:50.817Z,23.20
2023-01-23T15:10:22.213Z,24.20
2023-01-23T15:13:17.061Z,20.48
2023-01-23T15:15:53.301Z,20.85
2023-01-23T15:18:24.039Z,23.95
2023-01-23T15:20:56.726Z,20.05
2023-01-23T15:23:28.203Z,18.65
2023-01-23T15:26:31.583Z,19.67
2023-01-23T15:29:03.654Z,19.98
2023-01-23T15:31:40.702Z,23.67
2023-01-23T15:34:16.047Z,23.38
2023-01-23T15:36:50.586Z,23.13
2023-01-23T15:39:34.755Z,23.75
2023-01-23T15:42:13.259Z,23.50
2023-01-23T15:44:41.041Z,22.17
2023-01-23T15:47:07.673Z,17.83
2023-01-23T15:49:36.479Z,23.75
2023-01-23T15:52:17.625Z,22.60
2023-01-23T15:54:44.453Z,22.77
2023-01-23T15:57:13.302Z,19.13
2023-01-23T15:59:40.020Z,23.23
2023-01-23T16:02:12.857Z,19.27
2023-01-23T16:04:41.624Z,20.83
2023-01-23T16:07:08.244Z,20.58
2023-01-23T16:09:38.369Z,22.50
2023-01-23T16:12:05.197Z,23.75
2023-01-23T16:14:31.625Z,23.02
2023-01-23T16:17:04.710Z,25.40
2023-01-23T16:19:34.547Z,29.05
2023-01-23T16:22:05.392Z,25.58
2023-01-23T16:24:39.316Z,20.85
2023-01-23T16:27:06.915Z,23.17
2023-01-23T16:29:34.415Z,22.95
2023-01-23T16:32:02.457Z,28.40
2023-01-23T16:34:29.234Z,26.23
2023-01-23T16:36:59.141Z,23.88
2023-01-23T16:39:29.277Z,21.98
2023-01-23T16:41:55.827Z,22.77
2023-01-23T16:44:23.961Z,23.90
2023-01-23T16:46:52.797Z,26.52
2023-01-23T16:49:20.180Z,25.80
2023-01-23T16:52:01.454Z,23.42
2023-01-23T16:56:56.889Z,26.35
2023-01-23T16:59:40.474Z,23.20
2023-01-23T17:02:18.983Z,25.25
2023-01-23T17:04:45.415Z,24.35
2023-01-23T17:07:17.043Z,25.42
2023-01-23T17:09:44.529Z,24.95
2023-01-23T17:12:34.430Z,26.60
2023-01-23T17:15:03.020Z,27.15
2023-01-23T17:17:33.048Z,25.58
2023-01-23T17:20:01.184Z,51.67
2023-01-23T17:22:32.834Z,31.80
2023-01-23T17:24:59.330Z,24.67
2023-01-23T17:27:25.767Z,24.08
2023-01-23T17:29:52.180Z,22.63
2023-01-23T17:32:27.929Z,20.27
2023-01-23T17:34:54.620Z,20.83
2023-01-23T17:37:22.631Z,26.67
2023-01-23T17:39:49.097Z,24.70
2023-01-23T17:42:16.145Z,23.75
2023-01-23T17:44:42.556Z,24.42
2023-01-23T17:47:12.116Z,21.75
2023-01-23T17:49:39.584Z,24.13
2023-01-23T17:52:06.545Z,27.58
2023-01-23T17:54:33.097Z,23.17
2023-01-23T17:56:59.816Z,20.48
2023-01-23T17:59:26.272Z,23.13
2023-01-23T18:01:52.797Z,23.58
2023-01-23T18:04:22.033Z,27.35
2023-01-23T18:06:50.269Z,30.00
2023-01-23T18:09:17.337Z,25.05
2023-01-23T18:11:51.911Z,25.75
2023-01-23T18:14:37.508Z,20.75
2023-01-23T18:17:15.258Z,21.00
2023-01-23T18:19:41.950Z,26.60
2023-01-23T18:22:11.280Z,23.55
2023-01-23T18:24:38.429Z,22.45
2023-01-23T18:27:04.796Z,22.52
2023-01-23T18:29:34.256Z,26.52
2023-01-23T18:32:19.853Z,26.85
2023-01-23T18:34:58.160Z,27.25
2023-01-23T18:37:36.642Z,32.20
2023-01-23T18:40:17.373Z,26.80
2023-01-23T18:45:26.531Z,28.02
2023-01-23T18:47:53.975Z,24.33
2023-01-23T18:50:25.223Z,28.92
2023-01-23T18:53:06.402Z,26.05
2023-01-23T18:55:39.619Z,29.52
2023-01-23T18:58:24.431Z,30.30
2023-01-23T19:01:11.565Z,37.65
2023-01-23T19:03:43.810Z,32.53
2023-01-23T19:06:25.895Z,28.23
2023-01-23T19:08:54.489Z,37.15
2023-01-23T19:11:36.124Z,36.08
2023-01-23T19:14:24.374Z,31.05
2023-01-23T19:17:02.464Z,32.83
2023-01-23T19:19:41.234Z,38.65
2023-01-23T19:22:11.969Z,38.13
2023-01-23T19:24:38.697Z,44.00
2023-01-23T19:27:16.963Z,42.45
2023-01-23T19:29:43.581Z,41.63
2023-01-23T19:32:10.490Z,37.83
2023-01-23T19:34:37.040Z,37.30
2023-01-23T19:37:04.013Z,42.30
2023-01-23T19:39:30.859Z,35.88
2023-01-23T19:41:58.604Z,31.55
2023-01-23T19:44:25.322Z,36.83
2023-01-23T19:46:52.178Z,29.70
2023-01-23T19:49:18.841Z,34.05
2023-01-23T19:51:45.259Z,33.85
2023-01-23T19:54:13.984Z,34.92
2023-01-23T19:56:40.911Z,31.15
2023-01-23T19:59:07.877Z,38.08
2023-01-23T20:01:43.211Z,33.92
2023-01-23T20:04:27.551Z,32.80
2023-01-23T20:06:54.015Z,33.03
2023-01-23T20:09:20.911Z,39.03
2023-01-23T20:11:47.992Z,33.10
2023-01-23T20:14:14.511Z,36.65
2023-01-23T20:16:42.804Z,33.05
2023-01-23T20:19:13.023Z,32.85
2023-01-23T20:21:39.670Z,34.63
2023-01-23T20:24:07.459Z,39.58
2023-01-23T20:26:34.853Z,39.13
2023-01-23T20:29:01.347Z,35.05
2023-01-23T20:31:27.863Z,35.67
2023-01-23T20:33:54.328Z,38.53
2023-01-23T20:36:20.927Z,38.15
2023-01-23T20:38:48.123Z,38.08
2023-01-23T20:41:18.752Z,41.88
2023-01-23T20:43:45.705Z,37.93
2023-01-23T20:46:13.176Z,42.30
2023-01-23T20:48:42.156Z,40.83
2023-01-23T20:51:12.275Z,43.95
2023-01-23T20:53:40.012Z,39.28
2023-01-23T20:56:09.626Z,38.42
2023-01-23T20:58:59.918Z,41.60
2023-01-23T21:01:52.042Z,38.42
2023-01-23T21:04:18.871Z,40.35
2023-01-23T21:06:45.417Z,39.28
2023-01-23T21:09:11.864Z,41.35
2023-01-23T21:11:38.307Z,39.25
2023-01-23T21:14:05.223Z,38.53
2023-01-23T21:16:31.640Z,38.45
2023-01-23T21:18:58.101Z,41.25
2023-01-23T21:21:24.604Z,39.58
2023-01-23T21:23:51.262Z,41.22
2023-01-23T21:26:22.229Z,40.53
2023-01-23T21:28:50.120Z,42.33
2023-01-23T21:31:23.921Z,43.13
2023-01-23T21:33:50.902Z,45.33
2023-01-23T21:36:20.463Z,41.20
2023-01-23T21:38:47.527Z,41.25
2023-01-23T21:41:13.947Z,46.17
2023-01-23T21:43:40.410Z,46.65
2023-01-23T21:46:07.099Z,45.20
2023-01-23T21:48:34.736Z,40.55
2023-01-23T21:51:07.847Z,46.08
2023-01-23T21:53:35.811Z,42.95
2023-01-23T21:56:02.342Z,45.25
2023-01-23T21:58:28.764Z,49.35
2023-01-23T22:01:18.916Z,45.70
2023-01-23T22:03:45.726Z,42.58
2023-01-23T22:06:12.300Z,45.78
2023-01-23T22:08:38.994Z,40.40
2023-01-23T22:11:07.305Z,44.42
2023-01-23T22:13:33.991Z,45.53
2023-01-23T22:16:01.661Z,47.75
2023-01-23T22:18:28.947Z,46.95
2023-01-23T22:21:00.125Z,43.47
2023-01-23T22:23:27.165Z,39.08
2023-01-23T22:26:00.155Z,38.60
2023-01-23T22:28:27.336Z,42.53
2023-01-23T22:30:54.449Z,38.35
2023-01-23T22:33:22.377Z,42.13
2023-01-23T22:35:49.011Z,45.95
2023-01-23T22:38:16.358Z,43.65
2023-01-23T22:40:42.798Z,41.00
2023-01-23T22:43:09.680Z,41.88
2023-01-23T22:45:36.790Z,39.60
2023-01-23T22:48:03.296Z,38.90
2023-01-23T22:50:29.816Z,35.78
2023-01-23T22:52:56.211Z,39.88
2023-01-23T22:55:22.906Z,36.15
2023-01-23T22:57:52.620Z,41.00
2023-01-23T23:00:19.566Z,37.83
2023-01-23T23:02:46.004Z,37.67
2023-01-23T23:05:12.496Z,37.55
2023-01-23T23:07:39.019Z,38.80
2023-01-23T23:10:08.318Z,35.70
2023-01-23T23:12:34.820Z,41.15
2023-01-23T23:15:01.245Z,37.15
2023-01-23T23:17:29.548Z,43.20
2023-01-23T23:19:56.000Z,40.15
2023-01-23T23:22:22.438Z,39.25
2023-01-23T23:24:48.898Z,38.63
2023-01-23T23:27:15.319Z,42.97
2023-01-23T23:29:41.767Z,38.38
2023-01-23T23:32:08.380Z,34.28
2023-01-23T23:34:36.302Z,40.03
2023-01-23T23:37:03.944Z,41.15
2023-01-23T23:39:30.557Z,38.90
2023-01-23T23:41:57.004Z,37.05
2023-01-23T23:44:23.543Z,41.83
2023-01-23T23:46:49.959Z,40.67
2023-01-23T23:49:16.367Z,40.22
2023-01-23T23:51:42.762Z,41.97
2023-01-23T23:54:09.154Z,42.78
2023-01-23T23:56:35.599Z,40.40
2023-01-23T23:59:02.331Z,38.67
